sensor_id;sensor_type;location;lat;lon;timestamp;temperature;humidity
37158;DHT22;23050;51.776;22.638;2022-10-16T11:22:56;19.80;63.60
37158;DHT22;23050;51.776;22.638;2022-10-16T11:25:30;19.40;66.30
37158;DHT22;23050;51.776;22.638;2022-10-16T11:28:16;19.30;76.50
37158;DHT22;23050;51.776;22.638;2022-10-16T11:38:58;19.80;76.90
37158;DHT22;23050;51.776;22.638;2022-10-16T11:47:26;19.80;67.40
37158;DHT22;23050;51.776;22.638;2022-10-16T11:55:36;19.50;75.50
37158;DHT22;23050;51.776;22.638;2022-10-16T11:58:25;19.50;70.80
37158;DHT22;23050;51.776;22.638;2022-10-16T12:08:27;20.00;68.70
37158;DHT22;23050;51.776;22.638;2022-10-16T12:10:53;19.90;64.90
37158;DHT22;23050;51.776;22.638;2022-10-16T12:13:38;20.00;63.10
37158;DHT22;23050;51.776;22.638;2022-10-16T12:16:21;20.10;65.90
37158;DHT22;23050;51.776;22.638;2022-10-16T12:18:48;20.30;71.50
37158;DHT22;23050;51.776;22.638;2022-10-16T12:21:16;20.20;63.60
37158;DHT22;23050;51.776;22.638;2022-10-16T12:23:55;19.90;69.70
37158;DHT22;23050;51.776;22.638;2022-10-16T12:26:29;19.80;69.20
37158;DHT22;23050;51.776;22.638;2022-10-16T12:31:57;19.30;68.20
37158;DHT22;23050;51.776;22.638;2022-10-16T12:36:55;19.30;79.80
37158;DHT22;23050;51.776;22.638;2022-10-16T12:39:23;19.40;81.50
37158;DHT22;23050;51.776;22.638;2022-10-16T12:42:01;19.60;81.30
37158;DHT22;23050;51.776;22.638;2022-10-16T12:44:32;19.70;70.90
37158;DHT22;23050;51.776;22.638;2022-10-16T12:46:58;19.80;73.20
37158;DHT22;23050;51.776;22.638;2022-10-16T12:49:37;19.90;68.10
37158;DHT22;23050;51.776;22.638;2022-10-16T12:52:04;20.10;63.80
37158;DHT22;23050;51.776;22.638;2022-10-16T12:54:37;20.40;67.70
37158;DHT22;23050;51.776;22.638;2022-10-16T12:57:26;20.10;63.50
37158;DHT22;23050;51.776;22.638;2022-10-16T13:14:25;20.20;68.00
37158;DHT22;23050;51.776;22.638;2022-10-16T13:17:22;19.90;67.00
37158;DHT22;23050;51.776;22.638;2022-10-16T13:22:29;19.50;74.80
37158;DHT22;23050;51.776;22.638;2022-10-16T13:28:00;19.60;80.00
37158;DHT22;23050;51.776;22.638;2022-10-16T13:30:31;19.70;77.00
37158;DHT22;23050;51.776;22.638;2022-10-16T13:35:51;19.40;81.40
37158;DHT22;23050;51.776;22.638;2022-10-16T13:38:25;19.30;79.40
37158;DHT22;23050;51.776;22.638;2022-10-16T13:41:04;19.40;80.50
37158;DHT22;23050;51.776;22.638;2022-10-16T13:43:37;19.20;83.20
37158;DHT22;23050;51.776;22.638;2022-10-16T13:46:12;19.10;84.60
37158;DHT22;23050;51.776;22.638;2022-10-16T13:48:38;18.50;90.30
37158;DHT22;23050;51.776;22.638;2022-10-16T13:51:15;18.80;93.20
37158;DHT22;23050;51.776;22.638;2022-10-16T13:53:42;18.70;93.90
37158;DHT22;23050;51.776;22.638;2022-10-16T13:56:16;18.90;94.50
37158;DHT22;23050;51.776;22.638;2022-10-16T13:58:42;18.80;93.20
37158;DHT22;23050;51.776;22.638;2022-10-16T14:03:45;18.80;95.90
37158;DHT22;23050;51.776;22.638;2022-10-16T14:06:14;18.80;94.00
37158;DHT22;23050;51.776;22.638;2022-10-16T14:08:48;18.70;95.30
37158;DHT22;23050;51.776;22.638;2022-10-16T14:11:21;18.70;96.10
37158;DHT22;23050;51.776;22.638;2022-10-16T14:13:48;18.70;96.30
37158;DHT22;23050;51.776;22.638;2022-10-16T14:16:20;18.50;97.40
37158;DHT22;23050;51.776;22.638;2022-10-16T14:18:55;18.50;98.40
37158;DHT22;23050;51.776;22.638;2022-10-16T14:21:21;18.30;99.80
37158;DHT22;23050;51.776;22.638;2022-10-16T14:23:47;18.10;99.90
37158;DHT22;23050;51.776;22.638;2022-10-16T14:26:15;17.90;99.90
37158;DHT22;23050;51.776;22.638;2022-10-16T14:28:46;17.80;99.90
37158;DHT22;23050;51.776;22.638;2022-10-16T14:31:27;17.70;99.90
37158;DHT22;23050;51.776;22.638;2022-10-16T14:33:54;17.60;99.90
37158;DHT22;23050;51.776;22.638;2022-10-16T14:36:20;17.50;99.90
37158;DHT22;23050;51.776;22.638;2022-10-16T14:39:03;17.40;99.90
37158;DHT22;23050;51.776;22.638;2022-10-16T14:41:31;17.40;99.90
37158;DHT22;23050;51.776;22.638;2022-10-16T14:44:02;17.20;99.90
37158;DHT22;23050;51.776;22.638;2022-10-16T14:51:33;17.00;99.90
37158;DHT22;23050;51.776;22.638;2022-10-16T14:53:59;16.90;99.90
37158;DHT22;23050;51.776;22.638;2022-10-16T14:56:31;16.90;99.90
37158;DHT22;23050;51.776;22.638;2022-10-16T14:58:58;16.80;99.90
37158;DHT22;23050;51.776;22.638;2022-10-16T15:01:23;16.70;99.90
37158;DHT22;23050;51.776;22.638;2022-10-16T15:03:49;16.70;99.90
37158;DHT22;23050;51.776;22.638;2022-10-16T15:06:17;16.60;99.90
37158;DHT22;23050;51.776;22.638;2022-10-16T15:08:43;16.60;99.90
37158;DHT22;23050;51.776;22.638;2022-10-16T15:11:17;16.60;99.90
37158;DHT22;23050;51.776;22.638;2022-10-16T15:13:43;16.50;99.90
37158;DHT22;23050;51.776;22.638;2022-10-16T15:16:14;16.40;99.90
37158;DHT22;23050;51.776;22.638;2022-10-16T15:18:40;16.40;99.90
37158;DHT22;23050;51.776;22.638;2022-10-16T15:21:06;16.30;99.90
37158;DHT22;23050;51.776;22.638;2022-10-16T15:23:32;16.30;99.90
37158;DHT22;23050;51.776;22.638;2022-10-16T15:25:58;16.20;99.90
37158;DHT22;23050;51.776;22.638;2022-10-16T15:28:24;16.20;99.90
37158;DHT22;23050;51.776;22.638;2022-10-16T15:30:52;16.10;99.90
37158;DHT22;23050;51.776;22.638;2022-10-16T15:33:24;16.10;99.90
37158;DHT22;23050;51.776;22.638;2022-10-16T15:35:52;16.10;99.90
37158;DHT22;23050;51.776;22.638;2022-10-16T15:38:20;16.00;99.90
37158;DHT22;23050;51.776;22.638;2022-10-16T15:40:47;16.00;99.90
37158;DHT22;23050;51.776;22.638;2022-10-16T15:43:13;16.00;99.90
37158;DHT22;23050;51.776;22.638;2022-10-16T15:45:39;15.90;99.90
37158;DHT22;23050;51.776;22.638;2022-10-16T15:48:06;15.90;99.90
37158;DHT22;23050;51.776;22.638;2022-10-16T15:50:32;15.80;99.90
37158;DHT22;23050;51.776;22.638;2022-10-16T15:52:58;15.80;99.90
37158;DHT22;23050;51.776;22.638;2022-10-16T15:55:23;15.80;99.90
37158;DHT22;23050;51.776;22.638;2022-10-16T15:57:50;15.70;99.90
37158;DHT22;23050;51.776;22.638;2022-10-16T16:00:18;15.70;99.90
37158;DHT22;23050;51.776;22.638;2022-10-16T16:02:51;15.70;99.90
37158;DHT22;23050;51.776;22.638;2022-10-16T16:05:17;15.70;99.90
37158;DHT22;23050;51.776;22.638;2022-10-16T16:07:43;15.60;99.90
37158;DHT22;23050;51.776;22.638;2022-10-16T16:10:10;15.80;99.90
37158;DHT22;23050;51.776;22.638;2022-10-16T16:12:37;15.60;99.90
37158;DHT22;23050;51.776;22.638;2022-10-16T16:15:08;15.60;99.90
37158;DHT22;23050;51.776;22.638;2022-10-16T16:17:35;15.60;99.90
37158;DHT22;23050;51.776;22.638;2022-10-16T16:20:02;15.70;99.90
37158;DHT22;23050;51.776;22.638;2022-10-16T16:22:28;15.60;99.90
37158;DHT22;23050;51.776;22.638;2022-10-16T16:24:53;15.70;99.90
37158;DHT22;23050;51.776;22.638;2022-10-16T16:27:19;15.80;99.90
37158;DHT22;23050;51.776;22.638;2022-10-16T16:29:45;15.80;99.90
37158;DHT22;23050;51.776;22.638;2022-10-16T16:32:11;15.80;99.90
37158;DHT22;23050;51.776;22.638;2022-10-16T16:34:37;15.90;99.90
37158;DHT22;23050;51.776;22.638;2022-10-16T16:37:02;15.90;99.90
37158;DHT22;23050;51.776;22.638;2022-10-16T16:39:28;15.90;99.90
37158;DHT22;23050;51.776;22.638;2022-10-16T16:41:55;15.90;99.90
37158;DHT22;23050;51.776;22.638;2022-10-16T16:44:21;15.90;99.90
37158;DHT22;23050;51.776;22.638;2022-10-16T16:46:47;15.90;99.90
37158;DHT22;23050;51.776;22.638;2022-10-16T16:49:13;15.90;99.90
37158;DHT22;23050;51.776;22.638;2022-10-16T16:51:41;15.80;99.90
37158;DHT22;23050;51.776;22.638;2022-10-16T16:54:07;15.80;99.90
37158;DHT22;23050;51.776;22.638;2022-10-16T16:56:33;15.80;99.90
37158;DHT22;23050;51.776;22.638;2022-10-16T16:58:59;15.80;99.90
37158;DHT22;23050;51.776;22.638;2022-10-16T17:01:26;15.70;99.90
37158;DHT22;23050;51.776;22.638;2022-10-16T17:03:55;15.70;99.90
37158;DHT22;23050;51.776;22.638;2022-10-16T17:06:24;16.00;99.90
37158;DHT22;23050;51.776;22.638;2022-10-16T17:08:50;15.60;99.90
37158;DHT22;23050;51.776;22.638;2022-10-16T17:11:22;15.50;99.90
37158;DHT22;23050;51.776;22.638;2022-10-16T17:13:49;15.50;99.90
37158;DHT22;23050;51.776;22.638;2022-10-16T17:16:15;15.40;99.90
37158;DHT22;23050;51.776;22.638;2022-10-16T17:18:41;15.50;99.90
37158;DHT22;23050;51.776;22.638;2022-10-16T17:21:08;15.40;99.90
37158;DHT22;23050;51.776;22.638;2022-10-16T17:23:35;15.30;99.90
37158;DHT22;23050;51.776;22.638;2022-10-16T17:26:06;15.20;99.90
37158;DHT22;23050;51.776;22.638;2022-10-16T17:28:32;15.20;99.90
37158;DHT22;23050;51.776;22.638;2022-10-16T17:31:12;15.20;99.90
37158;DHT22;23050;51.776;22.638;2022-10-16T17:33:39;15.10;99.90
37158;DHT22;23050;51.776;22.638;2022-10-16T17:36:06;15.00;99.90
37158;DHT22;23050;51.776;22.638;2022-10-16T17:38:33;14.90;99.90
37158;DHT22;23050;51.776;22.638;2022-10-16T17:41:04;14.90;99.90
37158;DHT22;23050;51.776;22.638;2022-10-16T17:43:34;14.90;99.90
37158;DHT22;23050;51.776;22.638;2022-10-16T17:46:02;15.20;99.90
37158;DHT22;23050;51.776;22.638;2022-10-16T17:48:27;14.80;99.90
37158;DHT22;23050;51.776;22.638;2022-10-16T17:50:53;14.70;99.90
37158;DHT22;23050;51.776;22.638;2022-10-16T17:53:19;14.70;99.90
37158;DHT22;23050;51.776;22.638;2022-10-16T17:55:44;14.70;99.90
37158;DHT22;23050;51.776;22.638;2022-10-16T17:58:10;14.60;99.90
37158;DHT22;23050;51.776;22.638;2022-10-16T18:00:37;14.60;99.90
37158;DHT22;23050;51.776;22.638;2022-10-16T18:03:02;14.60;99.90
37158;DHT22;23050;51.776;22.638;2022-10-16T18:05:29;14.60;99.90
37158;DHT22;23050;51.776;22.638;2022-10-16T18:07:55;14.50;99.90
37158;DHT22;23050;51.776;22.638;2022-10-16T18:10:20;13.90;99.90
37158;DHT22;23050;51.776;22.638;2022-10-16T18:12:46;14.50;99.90
37158;DHT22;23050;51.776;22.638;2022-10-16T18:15:12;14.50;99.90
37158;DHT22;23050;51.776;22.638;2022-10-16T18:17:39;14.40;99.90
37158;DHT22;23050;51.776;22.638;2022-10-16T18:20:06;14.40;99.90
37158;DHT22;23050;51.776;22.638;2022-10-16T18:22:33;14.40;99.90
37158;DHT22;23050;51.776;22.638;2022-10-16T18:25:03;14.40;99.90
37158;DHT22;23050;51.776;22.638;2022-10-16T18:27:30;14.00;99.90
37158;DHT22;23050;51.776;22.638;2022-10-16T18:29:56;14.40;99.90
37158;DHT22;23050;51.776;22.638;2022-10-16T18:32:23;14.40;99.90
37158;DHT22;23050;51.776;22.638;2022-10-16T18:34:48;15.00;99.90
37158;DHT22;23050;51.776;22.638;2022-10-16T18:37:14;15.40;99.90
37158;DHT22;23050;51.776;22.638;2022-10-16T18:39:41;15.20;99.90
37158;DHT22;23050;51.776;22.638;2022-10-16T18:42:10;15.50;99.90
37158;DHT22;23050;51.776;22.638;2022-10-16T18:44:37;14.20;99.90
37158;DHT22;23050;51.776;22.638;2022-10-16T18:47:02;14.50;99.90
37158;DHT22;23050;51.776;22.638;2022-10-16T18:49:28;14.50;99.90
37158;DHT22;23050;51.776;22.638;2022-10-16T18:51:54;14.40;99.90
37158;DHT22;23050;51.776;22.638;2022-10-16T18:54:26;14.70;99.90
37158;DHT22;23050;51.776;22.638;2022-10-16T18:56:53;14.40;99.90
37158;DHT22;23050;51.776;22.638;2022-10-16T18:59:19;14.50;99.90
37158;DHT22;23050;51.776;22.638;2022-10-16T19:01:44;14.50;99.90
37158;DHT22;23050;51.776;22.638;2022-10-16T19:04:14;14.60;99.90
37158;DHT22;23050;51.776;22.638;2022-10-16T19:06:43;14.00;99.90
37158;DHT22;23050;51.776;22.638;2022-10-16T19:09:09;14.40;99.90
37158;DHT22;23050;51.776;22.638;2022-10-16T19:11:35;14.50;99.90
37158;DHT22;23050;51.776;22.638;2022-10-16T19:14:01;14.50;99.90
37158;DHT22;23050;51.776;22.638;2022-10-16T19:16:29;14.70;99.90
37158;DHT22;23050;51.776;22.638;2022-10-16T19:18:59;14.60;99.90
37158;DHT22;23050;51.776;22.638;2022-10-16T19:21:27;14.70;99.90
37158;DHT22;23050;51.776;22.638;2022-10-16T19:23:56;14.70;99.90
37158;DHT22;23050;51.776;22.638;2022-10-16T19:26:24;14.70;99.90
37158;DHT22;23050;51.776;22.638;2022-10-16T19:28:50;15.30;99.90
37158;DHT22;23050;51.776;22.638;2022-10-16T19:31:19;14.70;99.90
37158;DHT22;23050;51.776;22.638;2022-10-16T19:33:50;14.70;99.90
37158;DHT22;23050;51.776;22.638;2022-10-16T19:36:27;14.70;99.90
37158;DHT22;23050;51.776;22.638;2022-10-16T19:38:55;14.70;99.90
37158;DHT22;23050;51.776;22.638;2022-10-16T19:41:22;14.70;99.90
37158;DHT22;23050;51.776;22.638;2022-10-16T19:43:49;14.80;99.90
37158;DHT22;23050;51.776;22.638;2022-10-16T19:46:23;14.80;99.90
37158;DHT22;23050;51.776;22.638;2022-10-16T19:48:55;14.80;99.90
37158;DHT22;23050;51.776;22.638;2022-10-16T19:51:23;14.80;99.90
37158;DHT22;23050;51.776;22.638;2022-10-16T19:53:53;14.70;99.90
37158;DHT22;23050;51.776;22.638;2022-10-16T19:56:21;15.00;99.90
37158;DHT22;23050;51.776;22.638;2022-10-16T19:58:48;14.60;99.90
37158;DHT22;23050;51.776;22.638;2022-10-16T20:01:15;14.70;99.90
37158;DHT22;23050;51.776;22.638;2022-10-16T20:03:45;14.60;99.90
37158;DHT22;23050;51.776;22.638;2022-10-16T20:06:13;14.60;99.90
37158;DHT22;23050;51.776;22.638;2022-10-16T20:08:42;14.50;99.90
37158;DHT22;23050;51.776;22.638;2022-10-16T20:11:22;13.60;99.90
37158;DHT22;23050;51.776;22.638;2022-10-16T20:13:50;14.40;99.90
37158;DHT22;23050;51.776;22.638;2022-10-16T20:16:19;14.50;99.90
37158;DHT22;23050;51.776;22.638;2022-10-16T20:18:46;14.40;99.90
37158;DHT22;23050;51.776;22.638;2022-10-16T20:21:15;14.50;99.90
37158;DHT22;23050;51.776;22.638;2022-10-16T20:23:41;14.50;99.90
37158;DHT22;23050;51.776;22.638;2022-10-16T20:26:08;14.50;99.90
37158;DHT22;23050;51.776;22.638;2022-10-16T20:28:38;14.50;99.90
37158;DHT22;23050;51.776;22.638;2022-10-16T20:31:12;14.60;99.90
37158;DHT22;23050;51.776;22.638;2022-10-16T20:33:38;14.50;99.90
37158;DHT22;23050;51.776;22.638;2022-10-16T20:36:04;14.60;99.90
37158;DHT22;23050;51.776;22.638;2022-10-16T20:38:36;14.60;99.90
37158;DHT22;23050;51.776;22.638;2022-10-16T20:41:03;14.60;99.90
37158;DHT22;23050;51.776;22.638;2022-10-16T20:43:29;14.60;99.90
37158;DHT22;23050;51.776;22.638;2022-10-16T20:46:01;14.70;99.90
37158;DHT22;23050;51.776;22.638;2022-10-16T20:48:28;14.60;99.90
37158;DHT22;23050;51.776;22.638;2022-10-16T20:50:54;14.60;99.90
